createdAt,value
2017-07-26T00:01:05.178Z,100405.61
2017-07-26T00:03:32.900Z,100398.03
2017-07-26T00:06:00.491Z,100395.89
2017-07-26T00:08:28.136Z,100402.91
2017-07-26T00:10:55.722Z,100397.88
2017-07-26T00:13:23.361Z,100404.00
2017-07-26T00:15:50.976Z,100400.89
2017-07-26T00:18:18.574Z,100407.74
2017-07-26T00:20:46.211Z,100407.84
2017-07-26T00:23:13.953Z,100405.24
2017-07-26T00:25:41.569Z,100406.70
2017-07-26T00:28:09.180Z,100413.73
2017-07-26T00:30:36.927Z,100417.09
2017-07-26T00:33:04.528Z,100420.05
2017-07-26T00:35:32.151Z,100413.25
2017-07-26T00:37:59.756Z,100417.89
2017-07-26T00:40:27.390Z,100418.92
2017-07-26T00:42:54.995Z,100417.20
2017-07-26T00:45:22.622Z,100421.56
2017-07-26T00:47:50.223Z,100417.78
2017-07-26T00:50:17.894Z,100418.02
2017-07-26T00:52:45.491Z,100412.52
2017-07-26T00:55:13.141Z,100412.11
2017-07-26T00:57:40.795Z,100414.96
2017-07-26T01:00:08.423Z,100409.66
2017-07-26T01:02:36.155Z,100407.59
2017-07-26T01:05:03.834Z,100408.10
2017-07-26T01:07:31.430Z,100406.80
2017-07-26T01:09:59.083Z,100407.74
2017-07-26T01:12:26.691Z,100409.35
2017-07-26T01:14:54.310Z,100413.41
2017-07-26T01:17:21.918Z,100415.32
2017-07-26T01:19:49.594Z,100412.05
2017-07-26T01:22:17.187Z,100411.64
2017-07-26T01:24:44.808Z,100412.94
2017-07-26T01:27:12.403Z,100414.60
2017-07-26T01:29:40.031Z,100419.06
2017-07-26T01:32:07.623Z,100419.29
2017-07-26T01:34:35.273Z,100415.39
2017-07-26T01:37:02.887Z,100409.61
2017-07-26T01:39:30.492Z,100412.84
2017-07-26T01:41:58.113Z,100414.45
2017-07-26T01:44:25.718Z,100409.67
2017-07-26T01:46:53.372Z,100407.17
2017-07-26T01:49:20.966Z,100412.63
2017-07-26T01:51:48.638Z,100412.38
2017-07-26T01:54:16.222Z,100412.16
2017-07-26T01:56:43.875Z,100415.02
2017-07-26T01:59:11.485Z,100415.08
2017-07-26T02:01:39.099Z,100411.13
2017-07-26T02:04:06.700Z,100412.00
2017-07-26T02:06:34.343Z,100407.64
2017-07-26T02:09:02.006Z,100409.93
2017-07-26T02:11:29.709Z,100411.95
2017-07-26T02:13:57.320Z,100411.95
2017-07-26T02:16:24.950Z,100413.40
2017-07-26T02:18:52.562Z,100410.44
2017-07-26T02:21:20.205Z,100416.42
2017-07-26T02:23:47.827Z,100421.42
2017-07-26T02:26:15.458Z,100417.83
2017-07-26T02:28:43.056Z,100413.78
2017-07-26T02:31:10.684Z,100407.75
2017-07-26T02:33:38.284Z,100402.34
2017-07-26T02:36:05.893Z,100402.66
2017-07-26T02:38:33.566Z,100400.62
2017-07-26T02:41:01.175Z,100405.05
2017-07-26T02:43:28.791Z,100406.66
2017-07-26T02:45:56.386Z,100405.25
2017-07-26T02:48:24.005Z,100396.47
2017-07-26T02:50:51.630Z,100405.23
2017-07-26T02:53:19.254Z,100396.24
2017-07-26T02:55:46.854Z,100403.06
2017-07-26T02:58:14.530Z,100403.37
2017-07-26T03:00:42.137Z,100406.55
2017-07-26T03:03:09.779Z,100403.74
2017-07-26T03:05:37.374Z,100399.28
2017-07-26T03:08:05.089Z,100404.46
2017-07-26T03:10:32.687Z,100406.95
2017-07-26T03:13:00.339Z,100397.59
2017-07-26T03:15:27.942Z,100395.27
2017-07-26T03:17:55.563Z,100383.00
2017-07-26T03:20:23.206Z,100392.47
2017-07-26T03:22:50.807Z,100387.98
2017-07-26T03:25:18.548Z,100387.66
2017-07-26T03:27:46.146Z,100388.30
2017-07-26T03:30:13.782Z,100383.36
2017-07-26T03:32:41.386Z,100393.08
2017-07-26T03:35:09.028Z,100391.47
2017-07-26T03:37:36.618Z,100396.72
2017-07-26T03:40:04.258Z,100387.06
2017-07-26T03:42:31.873Z,100391.52
2017-07-26T03:44:59.490Z,100389.81
2017-07-26T03:47:27.106Z,100393.19
2017-07-26T03:49:54.733Z,100390.53
2017-07-26T03:52:22.355Z,100402.22
2017-07-26T03:54:49.977Z,100401.41
2017-07-26T03:57:17.588Z,100404.83
2017-07-26T03:59:45.231Z,100401.23
2017-07-26T04:02:12.850Z,100407.59
2017-07-26T04:04:40.615Z,100408.22
2017-07-26T04:07:08.222Z,100403.12
2017-07-26T04:09:35.851Z,100400.31
2017-07-26T04:12:03.460Z,100394.53
2017-07-26T04:14:31.106Z,100396.31
2017-07-26T04:16:58.721Z,100399.43
2017-07-26T04:19:26.346Z,100402.75
2017-07-26T04:21:53.987Z,100404.63
2017-07-26T04:24:21.594Z,100406.80
2017-07-26T04:26:49.214Z,100403.23
2017-07-26T04:29:16.831Z,100394.95
2017-07-26T04:31:44.467Z,100390.02
2017-07-26T04:34:12.066Z,100398.86
2017-07-26T04:36:39.690Z,100400.14
2017-07-26T04:39:07.285Z,100407.34
2017-07-26T04:41:35.027Z,100414.91
2017-07-26T04:44:02.616Z,100417.45
2017-07-26T04:46:30.239Z,100417.52
2017-07-26T04:48:57.839Z,100419.66
2017-07-26T04:51:25.434Z,100418.61
2017-07-26T04:53:53.079Z,100420.52
2017-07-26T04:56:20.666Z,100420.94
2017-07-26T04:58:48.290Z,100427.23
2017-07-26T05:01:15.882Z,100427.76
2017-07-26T05:03:43.519Z,100424.68
2017-07-26T05:06:11.103Z,100430.39
2017-07-26T05:08:38.721Z,100427.53
2017-07-26T05:11:06.323Z,100425.88
2017-07-26T05:13:33.947Z,100430.61
2017-07-26T05:16:01.675Z,100434.29
2017-07-26T05:18:29.302Z,100431.23
2017-07-26T05:20:56.883Z,100431.84
2017-07-26T05:23:24.519Z,100435.33
2017-07-26T05:25:52.118Z,100431.59
2017-07-26T05:28:19.734Z,100430.80
2017-07-26T05:30:47.334Z,100440.33
2017-07-26T05:33:14.964Z,100446.61
2017-07-26T05:35:42.565Z,100442.04
2017-07-26T05:38:10.182Z,100442.45
2017-07-26T05:40:37.787Z,100443.01
2017-07-26T05:43:05.416Z,100438.14
2017-07-26T05:45:33.012Z,100441.78
2017-07-26T05:48:00.690Z,100435.54
2017-07-26T05:50:28.435Z,100439.08
2017-07-26T05:52:56.031Z,100445.17
2017-07-26T05:55:23.658Z,100445.22
2017-07-26T05:57:51.288Z,100449.70
2017-07-26T06:00:18.923Z,100451.20
2017-07-26T06:02:46.553Z,100456.50
2017-07-26T06:05:14.154Z,100457.14
2017-07-26T06:07:41.785Z,100463.21
2017-07-26T06:10:09.524Z,100460.35
2017-07-26T06:12:37.154Z,100462.91
2017-07-26T06:15:04.742Z,100468.73
2017-07-26T06:17:32.382Z,100466.34
2017-07-26T06:20:00.043Z,100466.03
2017-07-26T06:22:27.687Z,100469.92
2017-07-26T06:24:55.287Z,100475.75
2017-07-26T06:27:23.066Z,100483.44
2017-07-26T06:29:50.755Z,100474.44
2017-07-26T06:32:18.484Z,100471.11
2017-07-26T06:34:46.073Z,100474.66
2017-07-26T06:37:13.710Z,100473.03
2017-07-26T06:39:41.385Z,100479.08
2017-07-26T06:42:09.033Z,100479.39
2017-07-26T06:44:36.698Z,100479.23
2017-07-26T06:47:04.325Z,100485.95
2017-07-26T06:49:31.956Z,100476.84
2017-07-26T06:51:59.620Z,100478.96
2017-07-26T06:54:27.225Z,100490.08
2017-07-26T06:56:54.846Z,100493.67
2017-07-26T06:59:22.442Z,100498.50
2017-07-26T07:01:50.030Z,100489.45
2017-07-26T07:04:17.664Z,100493.48
2017-07-26T07:06:45.278Z,100490.94
2017-07-26T07:09:12.906Z,100487.97
2017-07-26T07:11:40.515Z,100495.74
2017-07-26T07:14:08.137Z,100497.80
2017-07-26T07:16:35.725Z,100485.94
2017-07-26T07:19:03.446Z,100484.66
2017-07-26T07:21:31.014Z,100492.08
2017-07-26T07:23:58.639Z,100493.31
2017-07-26T07:26:26.996Z,100497.59
2017-07-26T07:28:54.624Z,100498.92
2017-07-26T07:31:22.214Z,100493.03
2017-07-26T07:33:49.913Z,100497.66
2017-07-26T07:36:17.514Z,100501.94
2017-07-26T07:38:45.134Z,100505.00
2017-07-26T07:41:12.740Z,100505.84
2017-07-26T07:43:40.360Z,100513.24
2017-07-26T07:46:07.958Z,100508.83
2017-07-26T07:48:35.575Z,100507.70
2017-07-26T07:51:03.188Z,100519.01
2017-07-26T07:53:30.839Z,100517.02
2017-07-26T07:55:58.422Z,100517.97
2017-07-26T07:58:26.027Z,100521.68
2017-07-26T08:00:53.699Z,100516.67
2017-07-26T08:03:21.281Z,100512.48
2017-07-26T08:05:48.908Z,100516.94
2017-07-26T08:08:16.506Z,100522.86
2017-07-26T08:10:44.147Z,100516.94
2017-07-26T08:13:11.735Z,100519.07
2017-07-26T08:15:39.381Z,100513.48
2017-07-26T08:18:06.967Z,100512.45
2017-07-26T08:20:34.592Z,100518.88
2017-07-26T08:23:02.214Z,100518.70
2017-07-26T08:25:29.809Z,100524.20
2017-07-26T08:27:57.430Z,100514.03
2017-07-26T08:30:25.034Z,100525.81
2017-07-26T08:32:52.684Z,100515.63
2017-07-26T08:35:20.295Z,100518.96
2017-07-26T08:37:47.938Z,100516.05
2017-07-26T08:40:15.547Z,100523.20
2017-07-26T08:42:43.214Z,100519.55
2017-07-26T08:45:10.807Z,100528.60
2017-07-26T08:47:38.439Z,100520.12
2017-07-26T08:50:06.026Z,100529.78
2017-07-26T08:52:33.672Z,100521.94
2017-07-26T08:55:01.263Z,100523.73
2017-07-26T08:57:28.931Z,100523.86
2017-07-26T08:59:56.523Z,100528.56
2017-07-26T09:02:24.143Z,100523.89
2017-07-26T09:04:51.745Z,100525.44
2017-07-26T09:07:19.396Z,100524.05
2017-07-26T09:09:47.092Z,100522.36
2017-07-26T09:12:14.755Z,100520.20
2017-07-26T09:14:42.351Z,100519.98
2017-07-26T09:17:09.935Z,100523.02
2017-07-26T09:19:37.550Z,100523.66
2017-07-26T09:22:05.191Z,100522.20
2017-07-26T09:24:32.810Z,100526.69
2017-07-26T09:27:00.404Z,100533.06
2017-07-26T09:29:28.031Z,100525.56
2017-07-26T09:31:55.643Z,100526.81
2017-07-26T09:34:23.291Z,100521.92
2017-07-26T09:36:50.886Z,100521.31
2017-07-26T09:39:18.516Z,100523.77
2017-07-26T09:41:46.081Z,100529.52
2017-07-26T09:44:13.725Z,100526.57
2017-07-26T09:46:41.315Z,100523.68
2017-07-26T09:49:08.938Z,100527.47
2017-07-26T09:51:36.565Z,100526.28
2017-07-26T09:54:04.266Z,100529.20
2017-07-26T09:56:31.866Z,100525.81
2017-07-26T09:58:59.470Z,100518.39
2017-07-26T10:01:27.102Z,100521.40
2017-07-26T10:03:54.698Z,100523.91
2017-07-26T10:06:22.337Z,100527.52
2017-07-26T10:08:49.931Z,100521.27
2017-07-26T10:11:17.660Z,100533.50
2017-07-26T10:13:45.259Z,100535.18
2017-07-26T10:16:12.935Z,100533.93
2017-07-26T10:18:40.543Z,100524.09
2017-07-26T10:21:08.166Z,100525.33
2017-07-26T10:23:35.753Z,100531.92
2017-07-26T10:26:03.438Z,100527.42
2017-07-26T10:28:31.026Z,100528.97
2017-07-26T10:30:58.670Z,100534.33
2017-07-26T10:33:26.266Z,100516.59
2017-07-26T10:35:53.894Z,100517.16
2017-07-26T10:38:21.516Z,100512.50
2017-07-26T10:40:49.128Z,100515.11
2017-07-26T10:43:16.723Z,100515.86
2017-07-26T10:45:44.369Z,100504.70
2017-07-26T10:48:11.962Z,100513.06
2017-07-26T10:50:39.585Z,100507.30
2017-07-26T10:53:07.202Z,100510.77
2017-07-26T10:55:34.846Z,100509.11
2017-07-26T10:58:02.454Z,100510.38
2017-07-26T11:00:30.090Z,100507.42
2017-07-26T11:02:57.684Z,100513.58
2017-07-26T11:05:25.365Z,100515.34
2017-07-26T11:07:52.980Z,100518.13
2017-07-26T11:10:20.612Z,100509.20
2017-07-26T11:12:48.203Z,100518.72
2017-07-26T11:15:15.846Z,100523.16
2017-07-26T11:17:43.446Z,100526.66
2017-07-26T11:20:11.050Z,100521.16
2017-07-26T11:22:38.643Z,100523.28
2017-07-26T11:25:06.257Z,100520.18
2017-07-26T11:27:33.864Z,100522.94
2017-07-26T11:30:01.499Z,100528.77
2017-07-26T11:32:29.144Z,100533.41
2017-07-26T11:34:56.763Z,100528.27
2017-07-26T11:37:24.393Z,100534.84
2017-07-26T11:39:52.052Z,100541.45
2017-07-26T11:42:19.642Z,100537.72
2017-07-26T11:44:47.280Z,100539.58
2017-07-26T11:47:14.934Z,100528.47
2017-07-26T11:49:42.590Z,100533.88
2017-07-26T11:52:10.194Z,100531.91
2017-07-26T11:54:37.790Z,100531.50
2017-07-26T11:57:05.414Z,100524.84
2017-07-26T11:59:33.022Z,100533.05
2017-07-26T12:02:00.672Z,100520.54
2017-07-26T12:04:28.278Z,100523.73
2017-07-26T12:06:55.987Z,100521.38
2017-07-26T12:09:23.585Z,100525.74
2017-07-26T12:11:51.210Z,100518.83
2017-07-26T12:14:18.820Z,100520.89
2017-07-26T12:16:46.435Z,100525.96
2017-07-26T12:19:14.039Z,100524.18
2017-07-26T12:21:41.671Z,100530.46
2017-07-26T12:24:09.278Z,100527.22
2017-07-26T12:26:36.934Z,100541.75
2017-07-26T12:29:04.554Z,100534.53
2017-07-26T12:31:32.139Z,100536.74
2017-07-26T12:33:59.855Z,100539.88
2017-07-26T12:36:27.463Z,100538.24
2017-07-26T12:38:55.082Z,100528.87
2017-07-26T12:41:22.737Z,100527.64
2017-07-26T12:43:50.366Z,100523.42
2017-07-26T12:46:17.990Z,100519.74
2017-07-26T12:48:45.607Z,100521.85
2017-07-26T12:51:13.222Z,100523.71
2017-07-26T12:53:40.876Z,100523.81
2017-07-26T12:56:08.470Z,100529.03
2017-07-26T12:58:36.090Z,100528.73
2017-07-26T13:01:03.708Z,100530.23
2017-07-26T13:03:31.303Z,100530.27
2017-07-26T13:05:58.929Z,100531.50
2017-07-26T13:08:26.535Z,100527.04
2017-07-26T13:10:54.166Z,100533.72
2017-07-26T13:13:21.775Z,100524.19
2017-07-26T13:15:49.394Z,100522.15
2017-07-26T13:18:16.981Z,100517.39
2017-07-26T13:20:44.602Z,100519.76
2017-07-26T13:23:12.206Z,100513.30
2017-07-26T13:25:39.832Z,100509.93
2017-07-26T13:28:07.434Z,100509.95
2017-07-26T13:30:35.052Z,100514.16
2017-07-26T13:33:02.647Z,100514.61
2017-07-26T13:35:30.413Z,100506.50
2017-07-26T13:37:58.041Z,100508.41
2017-07-26T13:40:25.685Z,100506.14
2017-07-26T13:42:53.271Z,100492.88
2017-07-26T13:45:20.920Z,100498.33
2017-07-26T13:47:48.515Z,100501.31
2017-07-26T13:50:16.139Z,100497.13
2017-07-26T13:52:43.738Z,100493.91
2017-07-26T13:55:11.359Z,100483.88
2017-07-26T13:57:38.983Z,100489.64
2017-07-26T14:00:06.597Z,100490.69
2017-07-26T14:02:34.210Z,100492.32
2017-07-26T14:05:01.830Z,100488.84
2017-07-26T14:07:29.426Z,100486.91
2017-07-26T14:09:57.090Z,100483.82
2017-07-26T14:12:24.683Z,100476.58
2017-07-26T14:14:52.291Z,100477.19
2017-07-26T14:17:19.934Z,100476.64
2017-07-26T14:19:47.570Z,100472.78
2017-07-26T14:22:15.174Z,100474.98
2017-07-26T14:24:42.811Z,100475.49
2017-07-26T14:27:10.413Z,100472.76
2017-07-26T14:29:38.024Z,100473.78
2017-07-26T14:32:05.667Z,100471.16
2017-07-26T14:34:33.267Z,100466.83
2017-07-26T14:37:00.954Z,100465.06
2017-07-26T14:39:28.547Z,100462.22
2017-07-26T14:41:56.198Z,100460.59
2017-07-26T14:44:23.792Z,100458.27
2017-07-26T14:46:51.413Z,100461.33
2017-07-26T14:49:19.012Z,100457.83
2017-07-26T14:51:46.652Z,100458.31
2017-07-26T14:54:14.277Z,100454.73
2017-07-26T14:56:41.923Z,100453.72
2017-07-26T14:59:09.542Z,100456.95
2017-07-26T15:01:37.157Z,100451.13
2017-07-26T15:04:04.747Z,100441.30
2017-07-26T15:06:32.403Z,100441.90
2017-07-26T15:08:59.990Z,100445.55
2017-07-26T15:11:27.603Z,100442.78
2017-07-26T15:13:55.243Z,100454.30
2017-07-26T15:16:22.842Z,100444.66
2017-07-26T15:18:50.536Z,100441.38
2017-07-26T15:21:18.146Z,100440.87
2017-07-26T15:23:45.764Z,100443.04
2017-07-26T15:26:13.360Z,100447.39
2017-07-26T15:28:40.995Z,100445.00
2017-07-26T15:31:08.594Z,100440.10
2017-07-26T15:33:36.231Z,100441.44
2017-07-26T15:36:03.834Z,100439.48
2017-07-26T15:38:31.486Z,100445.84
2017-07-26T15:40:59.078Z,100445.05
2017-07-26T15:43:26.699Z,100440.25
2017-07-26T15:45:54.307Z,100432.19
2017-07-26T15:48:21.948Z,100431.62
2017-07-26T15:50:49.544Z,100428.84
2017-07-26T15:53:17.139Z,100433.88
2017-07-26T15:55:44.747Z,100434.89
2017-07-26T15:58:12.363Z,100433.70
2017-07-26T16:00:39.990Z,100438.31
2017-07-26T16:03:07.587Z,100431.66
2017-07-26T16:05:35.219Z,100434.74
2017-07-26T16:08:02.882Z,100436.30
2017-07-26T16:10:30.511Z,100433.61
2017-07-26T16:12:58.143Z,100431.78
2017-07-26T16:15:25.763Z,100434.12
2017-07-26T16:17:53.374Z,100436.98
2017-07-26T16:20:21.084Z,100429.52
2017-07-26T16:22:48.685Z,100435.98
2017-07-26T16:25:16.342Z,100432.16
2017-07-26T16:27:43.943Z,100435.74
2017-07-26T16:30:11.616Z,100438.64
2017-07-26T16:32:39.257Z,100446.63
2017-07-26T16:35:06.992Z,100446.70
2017-07-26T16:37:34.711Z,100439.44
2017-07-26T16:40:02.474Z,100433.20
2017-07-26T16:42:30.084Z,100436.86
2017-07-26T16:44:57.723Z,100441.09
2017-07-26T16:47:25.352Z,100437.73
2017-07-26T16:49:52.988Z,100438.20
2017-07-26T16:52:20.583Z,100435.47
2017-07-26T16:54:48.234Z,100438.59
2017-07-26T16:57:15.850Z,100433.07
2017-07-26T16:59:43.462Z,100433.30
2017-07-26T17:02:11.104Z,100436.87
2017-07-26T17:04:38.745Z,100440.56
2017-07-26T17:07:06.371Z,100442.20
2017-07-26T17:09:34.092Z,100441.13
2017-07-26T17:12:01.729Z,100431.03
2017-07-26T17:14:29.377Z,100431.62
2017-07-26T17:16:57.001Z,100426.83
2017-07-26T17:19:24.595Z,100424.35
2017-07-26T17:21:52.230Z,100424.81
2017-07-26T17:24:19.861Z,100422.67
2017-07-26T17:26:47.496Z,100425.44
2017-07-26T17:29:15.120Z,100423.14
2017-07-26T17:31:42.738Z,100422.36
2017-07-26T17:34:10.391Z,100426.42
2017-07-26T17:36:38.087Z,100425.48
2017-07-26T17:39:05.688Z,100427.84
2017-07-26T17:41:33.286Z,100431.78
2017-07-26T17:44:00.929Z,100429.17
2017-07-26T17:46:28.526Z,100432.74
2017-07-26T17:48:56.191Z,100427.00
2017-07-26T17:51:23.808Z,100425.47
2017-07-26T17:53:51.448Z,100418.75
2017-07-26T17:56:19.050Z,100415.87
2017-07-26T17:58:46.708Z,100415.90
2017-07-26T18:01:14.347Z,100414.87
2017-07-26T18:03:42.054Z,100408.02
2017-07-26T18:06:09.671Z,100410.34
2017-07-26T18:08:37.379Z,100402.33
2017-07-26T18:11:05.023Z,100400.33
2017-07-26T18:13:32.666Z,100396.30
2017-07-26T18:16:00.307Z,100398.38
2017-07-26T18:18:27.919Z,100398.66
2017-07-26T18:20:55.551Z,100397.78
2017-07-26T18:23:23.314Z,100394.78
2017-07-26T18:25:50.902Z,100392.47
2017-07-26T18:28:18.546Z,100387.36
2017-07-26T18:30:46.178Z,100382.78
2017-07-26T18:33:13.781Z,100384.24
2017-07-26T18:35:41.399Z,100387.78
2017-07-26T18:38:08.999Z,100380.88
2017-07-26T18:40:36.682Z,100382.32
2017-07-26T18:43:04.259Z,100379.94
2017-07-26T18:45:31.900Z,100377.67
2017-07-26T18:47:59.514Z,100380.94
2017-07-26T18:50:27.147Z,100377.34
2017-07-26T18:52:54.755Z,100372.17
2017-07-26T18:55:22.408Z,100372.78
2017-07-26T18:57:50.015Z,100376.22
2017-07-26T19:00:17.654Z,100377.11
2017-07-26T19:02:45.295Z,100384.97
2017-07-26T19:05:12.926Z,100381.57
2017-07-26T19:07:40.564Z,100384.85
2017-07-26T19:10:08.156Z,100379.02
2017-07-26T19:12:35.775Z,100377.43
2017-07-26T19:15:03.435Z,100384.26
2017-07-26T19:17:31.112Z,100378.61
2017-07-26T19:19:58.703Z,100377.38
2017-07-26T19:22:26.371Z,100374.84
2017-07-26T19:24:53.988Z,100376.05
2017-07-26T19:27:21.651Z,100376.37
2017-07-26T19:29:49.258Z,100379.77
